Etusivu
METAR-TAF:

METAR-TAF

Lentoasemat :

Santa Cruz, Rio de Janeiro, Brasilia

Leveyspiiri: 22-56S, Pituuspiiri: 043-43W, korkeus merenpinnasta: 3 m

Tämänhetkinen sää

Tämä raportti tehtiin 1 tunti ja 11 minuuttia sitten, kello 16.00 UTC
Tuuli 10 kn pohjoisen/luoteesta
Lämpötila 30°C
Kosteus 49%
Ilmanpaine 1018 hPa
Näkyvyys 10 km tai enemmän
ei pilviä alle 1500 m:ssä eikä cumulonimbus-pilviä

METAR: SBSC 141600Z 33010KT CAVOK 30/18 Q1018

Aika: 14:11 (17:11 UTC)

Sääennuste

Tämä raportti tehtiin 8 tuntia ja 11 minuuttia sitten, kello 09.00 UTC
Ennuste voimassa 14. päivästä klo 12 UTC - 14. päivään klo 24 UTC
Tuuli 6 kn koillisesta
Näkyvyys 10 km tai enemmän
Hajonneita pilviä 1600 ft:n korkeudessa
Ajoittain
14. päivästä klo 12 UTC - 14. päivään klo 15 UTC
Hajonneita pilviä 1000 ft:n korkeudessa

TAF: SBSC 140900Z 1412/1424 04006KT 9999 BKN016 TX25/1415Z TN19/1424Z TEMPO 1412/1415 BKN010 RMK PDZ

Säähavainnot ja -ennusteet yli 4000 lentoasemalta (METAR- ja TAF-raportit).

Käytössä olevat sääasemat on merkitty karttaan keltaisilla ja punaisilla pisteillä.

Aseta hiiri pisteen päälle nähdäksesi sääaseman nimen.

Klikkaa sitten nähdäksesi säähavainnot ja -ennusteet.

Kartan vaihtaminen: klikkaa mustalla rastilla varustettuja vihreitä pisteitä, niin voit zoomata sisään; viivalla varustettua vihreää pistettä, niin voit zoomata ulos tai vihreitä nuolia, niin pääset viereisille kartoille.


METAR-TAF: